sensor_id;sensor_type;location;lat;lon;timestamp;P1;durP1;ratioP1;P2;durP2;ratioP2
11510;SDS011;5812;48.864;9.190;2023-02-15T00:00:18;23.97;;;23.77;;
11510;SDS011;5812;48.864;9.190;2023-02-15T00:02:44;24.37;;;24.17;;
11510;SDS011;5812;48.864;9.190;2023-02-15T00:05:10;23.60;;;23.40;;
11510;SDS011;5812;48.864;9.190;2023-02-15T00:07:35;23.13;;;22.93;;
11510;SDS011;5812;48.864;9.190;2023-02-15T00:10:01;24.13;;;23.93;;
11510;SDS011;5812;48.864;9.190;2023-02-15T00:12:27;22.53;;;22.33;;
11510;SDS011;5812;48.864;9.190;2023-02-15T00:14:53;22.07;;;21.87;;
11510;SDS011;5812;48.864;9.190;2023-02-15T00:17:18;21.47;;;21.27;;
11510;SDS011;5812;48.864;9.190;2023-02-15T00:19:44;21.90;;;21.70;;
11510;SDS011;5812;48.864;9.190;2023-02-15T00:22:10;22.23;;;22.03;;
11510;SDS011;5812;48.864;9.190;2023-02-15T00:24:35;21.60;;;21.40;;
11510;SDS011;5812;48.864;9.190;2023-02-15T00:27:01;23.33;;;23.13;;
11510;SDS011;5812;48.864;9.190;2023-02-15T00:29:26;22.00;;;21.80;;
11510;SDS011;5812;48.864;9.190;2023-02-15T00:31:53;24.87;;;24.57;;
11510;SDS011;5812;48.864;9.190;2023-02-15T00:34:22;26.47;;;26.17;;
11510;SDS011;5812;48.864;9.190;2023-02-15T00:36:49;26.70;;;26.40;;
11510;SDS011;5812;48.864;9.190;2023-02-15T00:39:15;25.93;;;25.73;;
11510;SDS011;5812;48.864;9.190;2023-02-15T00:41:42;27.10;;;26.80;;
11510;SDS011;5812;48.864;9.190;2023-02-15T00:44:08;28.83;;;28.53;;
11510;SDS011;5812;48.864;9.190;2023-02-15T00:46:34;26.20;;;26.00;;
11510;SDS011;5812;48.864;9.190;2023-02-15T00:49:00;23.83;;;23.63;;
11510;SDS011;5812;48.864;9.190;2023-02-15T00:51:26;23.57;;;23.37;;
11510;SDS011;5812;48.864;9.190;2023-02-15T00:53:52;23.27;;;23.07;;
11510;SDS011;5812;48.864;9.190;2023-02-15T00:56:18;23.40;;;23.20;;
11510;SDS011;5812;48.864;9.190;2023-02-15T00:58:43;24.00;;;23.80;;
11510;SDS011;5812;48.864;9.190;2023-02-15T01:01:10;24.53;;;24.33;;
11510;SDS011;5812;48.864;9.190;2023-02-15T01:03:37;22.97;;;22.77;;
11510;SDS011;5812;48.864;9.190;2023-02-15T01:06:04;23.07;;;22.87;;
11510;SDS011;5812;48.864;9.190;2023-02-15T01:08:30;22.47;;;22.27;;
11510;SDS011;5812;48.864;9.190;2023-02-15T01:10:56;23.00;;;22.80;;
11510;SDS011;5812;48.864;9.190;2023-02-15T01:13:21;22.13;;;21.93;;
11510;SDS011;5812;48.864;9.190;2023-02-15T01:15:53;23.93;;;23.73;;
11510;SDS011;5812;48.864;9.190;2023-02-15T01:18:19;24.80;;;24.60;;
11510;SDS011;5812;48.864;9.190;2023-02-15T01:20:45;22.77;;;22.57;;
11510;SDS011;5812;48.864;9.190;2023-02-15T01:23:12;24.97;;;24.77;;
11510;SDS011;5812;48.864;9.190;2023-02-15T01:25:38;23.87;;;23.67;;
11510;SDS011;5812;48.864;9.190;2023-02-15T01:28:04;24.00;;;23.80;;
11510;SDS011;5812;48.864;9.190;2023-02-15T01:30:30;22.13;;;21.93;;
11510;SDS011;5812;48.864;9.190;2023-02-15T01:32:55;21.90;;;21.70;;
11510;SDS011;5812;48.864;9.190;2023-02-15T01:35:21;21.30;;;21.10;;
11510;SDS011;5812;48.864;9.190;2023-02-15T01:37:46;23.43;;;23.23;;
11510;SDS011;5812;48.864;9.190;2023-02-15T01:40:13;21.77;;;21.60;;
11510;SDS011;5812;48.864;9.190;2023-02-15T01:42:42;22.83;;;22.63;;
11510;SDS011;5812;48.864;9.190;2023-02-15T01:45:30;23.03;;;22.83;;
11510;SDS011;5812;48.864;9.190;2023-02-15T01:47:58;20.07;;;19.97;;
11510;SDS011;5812;48.864;9.190;2023-02-15T01:50:46;22.83;;;22.63;;
11510;SDS011;5812;48.864;9.190;2023-02-15T01:56:22;21.90;;;21.70;;
11510;SDS011;5812;48.864;9.190;2023-02-15T01:58:51;22.63;;;22.43;;
11510;SDS011;5812;48.864;9.190;2023-02-15T02:01:20;21.63;;;21.43;;
11510;SDS011;5812;48.864;9.190;2023-02-15T02:06:24;20.80;;;20.67;;
11510;SDS011;5812;48.864;9.190;2023-02-15T02:08:51;21.80;;;21.60;;
11510;SDS011;5812;48.864;9.190;2023-02-15T02:11:18;19.83;;;19.73;;
11510;SDS011;5812;48.864;9.190;2023-02-15T02:13:44;18.83;;;18.73;;
11510;SDS011;5812;48.864;9.190;2023-02-15T02:16:13;20.07;;;19.93;;
11510;SDS011;5812;48.864;9.190;2023-02-15T02:18:53;18.57;;;18.47;;
11510;SDS011;5812;48.864;9.190;2023-02-15T02:24:23;19.30;;;19.20;;
11510;SDS011;5812;48.864;9.190;2023-02-15T02:30:03;17.87;;;17.77;;
11510;SDS011;5812;48.864;9.190;2023-02-15T02:35:35;20.03;;;19.93;;
11510;SDS011;5812;48.864;9.190;2023-02-15T02:38:38;19.70;;;19.60;;
11510;SDS011;5812;48.864;9.190;2023-02-15T02:43:51;20.10;;;19.90;;
11510;SDS011;5812;48.864;9.190;2023-02-15T02:47:04;20.63;;;20.43;;
11510;SDS011;5812;48.864;9.190;2023-02-15T02:49:31;20.87;;;20.67;;
11510;SDS011;5812;48.864;9.190;2023-02-15T02:52:02;23.43;;;23.23;;
11510;SDS011;5812;48.864;9.190;2023-02-15T02:54:30;22.37;;;22.17;;
11510;SDS011;5812;48.864;9.190;2023-02-15T02:56:59;25.37;;;25.17;;
11510;SDS011;5812;48.864;9.190;2023-02-15T02:59:29;25.50;;;25.30;;
11510;SDS011;5812;48.864;9.190;2023-02-15T03:02:04;25.77;;;25.57;;
11510;SDS011;5812;48.864;9.190;2023-02-15T03:04:38;26.23;;;26.03;;
11510;SDS011;5812;48.864;9.190;2023-02-15T03:07:11;24.50;;;24.30;;
11510;SDS011;5812;48.864;9.190;2023-02-15T03:09:45;24.90;;;24.60;;
11510;SDS011;5812;48.864;9.190;2023-02-15T03:14:53;24.80;;;24.60;;
11510;SDS011;5812;48.864;9.190;2023-02-15T03:17:23;22.47;;;22.27;;
11510;SDS011;5812;48.864;9.190;2023-02-15T03:19:53;21.70;;;21.50;;
11510;SDS011;5812;48.864;9.190;2023-02-15T03:22:34;24.10;;;23.90;;
11510;SDS011;5812;48.864;9.190;2023-02-15T03:25:09;24.17;;;23.97;;
11510;SDS011;5812;48.864;9.190;2023-02-15T03:27:41;23.47;;;23.27;;
11510;SDS011;5812;48.864;9.190;2023-02-15T03:30:10;25.50;;;25.20;;
11510;SDS011;5812;48.864;9.190;2023-02-15T03:32:37;23.23;;;22.97;;
11510;SDS011;5812;48.864;9.190;2023-02-15T03:35:06;24.20;;;24.00;;
11510;SDS011;5812;48.864;9.190;2023-02-15T03:40:07;24.00;;;23.80;;
11510;SDS011;5812;48.864;9.190;2023-02-15T03:45:31;22.07;;;21.87;;
11510;SDS011;5812;48.864;9.190;2023-02-15T03:47:59;21.27;;;21.07;;
11510;SDS011;5812;48.864;9.190;2023-02-15T03:50:29;22.57;;;22.37;;
11510;SDS011;5812;48.864;9.190;2023-02-15T03:53:17;21.27;;;21.07;;
11510;SDS011;5812;48.864;9.190;2023-02-15T03:55:46;21.30;;;21.07;;
11510;SDS011;5812;48.864;9.190;2023-02-15T03:58:12;21.00;;;20.80;;
11510;SDS011;5812;48.864;9.190;2023-02-15T04:01:05;21.03;;;20.83;;
11510;SDS011;5812;48.864;9.190;2023-02-15T04:04:09;22.23;;;21.93;;
11510;SDS011;5812;48.864;9.190;2023-02-15T04:06:43;21.80;;;21.53;;
11510;SDS011;5812;48.864;9.190;2023-02-15T04:09:08;21.77;;;21.47;;
11510;SDS011;5812;48.864;9.190;2023-02-15T04:11:53;20.50;;;20.40;;
11510;SDS011;5812;48.864;9.190;2023-02-15T04:14:18;20.70;;;20.50;;
11510;SDS011;5812;48.864;9.190;2023-02-15T04:17:05;21.23;;;21.03;;
11510;SDS011;5812;48.864;9.190;2023-02-15T04:19:31;21.47;;;21.17;;
11510;SDS011;5812;48.864;9.190;2023-02-15T04:22:15;19.40;;;19.10;;
11510;SDS011;5812;48.864;9.190;2023-02-15T04:24:59;21.00;;;20.70;;
11510;SDS011;5812;48.864;9.190;2023-02-15T04:27:50;19.23;;;19.10;;
11510;SDS011;5812;48.864;9.190;2023-02-15T04:30:18;18.83;;;18.63;;
11510;SDS011;5812;48.864;9.190;2023-02-15T04:32:45;20.07;;;19.77;;
11510;SDS011;5812;48.864;9.190;2023-02-15T04:35:12;17.27;;;17.17;;
11510;SDS011;5812;48.864;9.190;2023-02-15T04:37:38;19.80;;;19.60;;
11510;SDS011;5812;48.864;9.190;2023-02-15T04:40:05;19.17;;;18.97;;
11510;SDS011;5812;48.864;9.190;2023-02-15T04:42:32;18.47;;;18.27;;
11510;SDS011;5812;48.864;9.190;2023-02-15T04:44:58;19.37;;;19.27;;
11510;SDS011;5812;48.864;9.190;2023-02-15T04:47:23;19.03;;;18.93;;
11510;SDS011;5812;48.864;9.190;2023-02-15T04:49:49;21.27;;;21.07;;
11510;SDS011;5812;48.864;9.190;2023-02-15T04:52:15;17.80;;;17.70;;
11510;SDS011;5812;48.864;9.190;2023-02-15T04:54:42;19.20;;;19.10;;
11510;SDS011;5812;48.864;9.190;2023-02-15T04:57:08;20.67;;;20.47;;
11510;SDS011;5812;48.864;9.190;2023-02-15T04:59:34;18.47;;;18.37;;
11510;SDS011;5812;48.864;9.190;2023-02-15T05:02:00;20.53;;;20.30;;
11510;SDS011;5812;48.864;9.190;2023-02-15T05:04:26;20.57;;;20.37;;
11510;SDS011;5812;48.864;9.190;2023-02-15T05:06:51;21.33;;;21.13;;
11510;SDS011;5812;48.864;9.190;2023-02-15T05:09:17;22.20;;;22.00;;
11510;SDS011;5812;48.864;9.190;2023-02-15T05:11:42;20.33;;;20.13;;
11510;SDS011;5812;48.864;9.190;2023-02-15T05:14:08;22.00;;;21.80;;
11510;SDS011;5812;48.864;9.190;2023-02-15T05:16:34;21.27;;;21.10;;
11510;SDS011;5812;48.864;9.190;2023-02-15T05:19:00;23.07;;;22.87;;
11510;SDS011;5812;48.864;9.190;2023-02-15T05:21:25;19.93;;;19.73;;
11510;SDS011;5812;48.864;9.190;2023-02-15T05:23:51;20.13;;;19.93;;
11510;SDS011;5812;48.864;9.190;2023-02-15T05:26:18;21.93;;;21.73;;
11510;SDS011;5812;48.864;9.190;2023-02-15T05:29:04;19.50;;;19.40;;
11510;SDS011;5812;48.864;9.190;2023-02-15T05:31:30;19.53;;;19.40;;
11510;SDS011;5812;48.864;9.190;2023-02-15T05:33:57;18.90;;;18.80;;
11510;SDS011;5812;48.864;9.190;2023-02-15T05:36:22;18.93;;;18.73;;
11510;SDS011;5812;48.864;9.190;2023-02-15T05:38:48;18.63;;;18.43;;
11510;SDS011;5812;48.864;9.190;2023-02-15T05:41:13;20.63;;;20.37;;
11510;SDS011;5812;48.864;9.190;2023-02-15T05:43:39;17.97;;;17.87;;
11510;SDS011;5812;48.864;9.190;2023-02-15T05:46:05;17.80;;;17.70;;
11510;SDS011;5812;48.864;9.190;2023-02-15T05:48:31;18.83;;;18.73;;
11510;SDS011;5812;48.864;9.190;2023-02-15T05:51:01;18.63;;;18.53;;
11510;SDS011;5812;48.864;9.190;2023-02-15T05:53:30;20.27;;;20.17;;
11510;SDS011;5812;48.864;9.190;2023-02-15T05:55:57;22.53;;;22.33;;
11510;SDS011;5812;48.864;9.190;2023-02-15T05:58:27;21.97;;;21.77;;
11510;SDS011;5812;48.864;9.190;2023-02-15T06:00:54;20.90;;;20.80;;
11510;SDS011;5812;48.864;9.190;2023-02-15T06:03:20;21.07;;;20.87;;
11510;SDS011;5812;48.864;9.190;2023-02-15T06:05:46;20.83;;;20.63;;
11510;SDS011;5812;48.864;9.190;2023-02-15T06:08:12;19.83;;;19.63;;
11510;SDS011;5812;48.864;9.190;2023-02-15T06:10:37;22.33;;;22.13;;
11510;SDS011;5812;48.864;9.190;2023-02-15T06:13:05;21.27;;;21.07;;
11510;SDS011;5812;48.864;9.190;2023-02-15T06:15:31;19.93;;;19.73;;
11510;SDS011;5812;48.864;9.190;2023-02-15T06:17:56;21.13;;;20.93;;
11510;SDS011;5812;48.864;9.190;2023-02-15T06:20:22;21.57;;;21.37;;
11510;SDS011;5812;48.864;9.190;2023-02-15T06:22:47;22.83;;;22.63;;
11510;SDS011;5812;48.864;9.190;2023-02-15T06:25:13;24.30;;;24.10;;
11510;SDS011;5812;48.864;9.190;2023-02-15T06:27:40;22.97;;;22.77;;
11510;SDS011;5812;48.864;9.190;2023-02-15T06:30:07;21.03;;;20.83;;
11510;SDS011;5812;48.864;9.190;2023-02-15T06:32:33;21.57;;;21.37;;
11510;SDS011;5812;48.864;9.190;2023-02-15T06:34:59;20.93;;;20.73;;
11510;SDS011;5812;48.864;9.190;2023-02-15T06:37:24;22.33;;;22.13;;
11510;SDS011;5812;48.864;9.190;2023-02-15T06:39:50;23.07;;;22.87;;
11510;SDS011;5812;48.864;9.190;2023-02-15T06:42:16;19.33;;;19.20;;
11510;SDS011;5812;48.864;9.190;2023-02-15T06:44:43;22.53;;;22.33;;
11510;SDS011;5812;48.864;9.190;2023-02-15T06:47:09;20.27;;;20.17;;
11510;SDS011;5812;48.864;9.190;2023-02-15T06:49:35;21.63;;;21.43;;
11510;SDS011;5812;48.864;9.190;2023-02-15T06:52:01;20.93;;;20.73;;
11510;SDS011;5812;48.864;9.190;2023-02-15T06:54:27;20.27;;;20.17;;
11510;SDS011;5812;48.864;9.190;2023-02-15T06:56:52;19.63;;;19.47;;
11510;SDS011;5812;48.864;9.190;2023-02-15T06:59:18;21.03;;;20.83;;
11510;SDS011;5812;48.864;9.190;2023-02-15T07:01:43;18.20;;;18.10;;
11510;SDS011;5812;48.864;9.190;2023-02-15T07:04:09;18.80;;;18.70;;
11510;SDS011;5812;48.864;9.190;2023-02-15T07:06:35;18.60;;;18.50;;
11510;SDS011;5812;48.864;9.190;2023-02-15T07:09:01;21.10;;;20.90;;
11510;SDS011;5812;48.864;9.190;2023-02-15T07:11:27;19.97;;;19.77;;
11510;SDS011;5812;48.864;9.190;2023-02-15T07:14:11;18.43;;;18.23;;
11510;SDS011;5812;48.864;9.190;2023-02-15T07:16:37;19.17;;;19.07;;
11510;SDS011;5812;48.864;9.190;2023-02-15T07:19:03;19.40;;;19.17;;
11510;SDS011;5812;48.864;9.190;2023-02-15T07:21:29;19.13;;;18.93;;
11510;SDS011;5812;48.864;9.190;2023-02-15T07:23:57;18.17;;;18.07;;
11510;SDS011;5812;48.864;9.190;2023-02-15T07:26:23;17.77;;;17.67;;
11510;SDS011;5812;48.864;9.190;2023-02-15T07:28:49;19.33;;;19.23;;
11510;SDS011;5812;48.864;9.190;2023-02-15T07:31:14;18.83;;;18.73;;
11510;SDS011;5812;48.864;9.190;2023-02-15T07:33:40;18.97;;;18.87;;
11510;SDS011;5812;48.864;9.190;2023-02-15T07:36:06;19.33;;;19.23;;
11510;SDS011;5812;48.864;9.190;2023-02-15T07:38:35;17.83;;;17.73;;
11510;SDS011;5812;48.864;9.190;2023-02-15T07:41:03;17.30;;;17.20;;
11510;SDS011;5812;48.864;9.190;2023-02-15T07:43:32;19.43;;;19.33;;
11510;SDS011;5812;48.864;9.190;2023-02-15T07:45:59;18.73;;;18.63;;
11510;SDS011;5812;48.864;9.190;2023-02-15T07:48:26;17.80;;;17.70;;
11510;SDS011;5812;48.864;9.190;2023-02-15T07:50:51;17.53;;;17.43;;
11510;SDS011;5812;48.864;9.190;2023-02-15T07:53:17;17.07;;;16.97;;
11510;SDS011;5812;48.864;9.190;2023-02-15T07:55:43;17.83;;;17.73;;
11510;SDS011;5812;48.864;9.190;2023-02-15T07:58:09;17.80;;;17.70;;
11510;SDS011;5812;48.864;9.190;2023-02-15T08:00:34;18.13;;;18.03;;
11510;SDS011;5812;48.864;9.190;2023-02-15T08:03:22;19.73;;;19.53;;
11510;SDS011;5812;48.864;9.190;2023-02-15T08:05:54;19.67;;;19.47;;
11510;SDS011;5812;48.864;9.190;2023-02-15T08:08:22;19.97;;;19.87;;
11510;SDS011;5812;48.864;9.190;2023-02-15T08:10:57;18.90;;;18.80;;
11510;SDS011;5812;48.864;9.190;2023-02-15T08:13:43;18.57;;;18.40;;
11510;SDS011;5812;48.864;9.190;2023-02-15T08:16:23;19.00;;;18.87;;
11510;SDS011;5812;48.864;9.190;2023-02-15T08:18:50;21.77;;;21.57;;
11510;SDS011;5812;48.864;9.190;2023-02-15T08:21:16;22.23;;;22.03;;
11510;SDS011;5812;48.864;9.190;2023-02-15T08:23:43;25.80;;;25.50;;
11510;SDS011;5812;48.864;9.190;2023-02-15T08:26:08;26.30;;;26.00;;
11510;SDS011;5812;48.864;9.190;2023-02-15T08:28:34;24.57;;;24.37;;
11510;SDS011;5812;48.864;9.190;2023-02-15T08:31:04;23.70;;;23.50;;
11510;SDS011;5812;48.864;9.190;2023-02-15T08:33:30;24.27;;;24.07;;
11510;SDS011;5812;48.864;9.190;2023-02-15T08:35:56;23.57;;;23.37;;
11510;SDS011;5812;48.864;9.190;2023-02-15T08:38:21;23.67;;;23.47;;
11510;SDS011;5812;48.864;9.190;2023-02-15T08:40:47;23.70;;;23.50;;
11510;SDS011;5812;48.864;9.190;2023-02-15T08:43:12;23.87;;;23.67;;
11510;SDS011;5812;48.864;9.190;2023-02-15T08:45:38;22.53;;;22.33;;
11510;SDS011;5812;48.864;9.190;2023-02-15T08:48:03;21.90;;;21.70;;
11510;SDS011;5812;48.864;9.190;2023-02-15T08:50:29;22.07;;;21.87;;
11510;SDS011;5812;48.864;9.190;2023-02-15T08:52:55;24.17;;;23.97;;
11510;SDS011;5812;48.864;9.190;2023-02-15T08:55:21;23.13;;;22.93;;
11510;SDS011;5812;48.864;9.190;2023-02-15T08:57:46;23.83;;;23.63;;
11510;SDS011;5812;48.864;9.190;2023-02-15T09:00:13;23.57;;;23.37;;
11510;SDS011;5812;48.864;9.190;2023-02-15T09:02:38;22.43;;;22.23;;
11510;SDS011;5812;48.864;9.190;2023-02-15T09:05:04;23.73;;;23.53;;
11510;SDS011;5812;48.864;9.190;2023-02-15T09:07:30;23.40;;;23.20;;
11510;SDS011;5812;48.864;9.190;2023-02-15T09:09:56;23.83;;;23.63;;
11510;SDS011;5812;48.864;9.190;2023-02-15T09:12:21;24.33;;;24.13;;
11510;SDS011;5812;48.864;9.190;2023-02-15T09:14:47;26.40;;;26.20;;
11510;SDS011;5812;48.864;9.190;2023-02-15T09:17:12;26.60;;;26.40;;
11510;SDS011;5812;48.864;9.190;2023-02-15T09:19:38;25.47;;;25.27;;
11510;SDS011;5812;48.864;9.190;2023-02-15T09:22:03;25.40;;;25.20;;
11510;SDS011;5812;48.864;9.190;2023-02-15T09:24:31;24.40;;;24.20;;
11510;SDS011;5812;48.864;9.190;2023-02-15T09:26:58;25.83;;;25.63;;
11510;SDS011;5812;48.864;9.190;2023-02-15T09:29:24;27.00;;;26.80;;
11510;SDS011;5812;48.864;9.190;2023-02-15T09:31:50;25.73;;;25.53;;
11510;SDS011;5812;48.864;9.190;2023-02-15T09:34:16;26.00;;;25.80;;
11510;SDS011;5812;48.864;9.190;2023-02-15T09:36:44;22.97;;;22.87;;
11510;SDS011;5812;48.864;9.190;2023-02-15T10:06:27;16.83;;;16.73;;
11510;SDS011;5812;48.864;9.190;2023-02-15T10:14:56;16.80;;;16.70;;
11510;SDS011;5812;48.864;9.190;2023-02-15T10:28:06;15.47;;;15.37;;
11510;SDS011;5812;48.864;9.190;2023-02-15T10:30:54;15.73;;;15.63;;
11510;SDS011;5812;48.864;9.190;2023-02-15T10:33:41;15.80;;;15.70;;
11510;SDS011;5812;48.864;9.190;2023-02-15T10:36:31;15.30;;;15.20;;
11510;SDS011;5812;48.864;9.190;2023-02-15T10:39:09;14.67;;;14.57;;
11510;SDS011;5812;48.864;9.190;2023-02-15T10:41:39;13.87;;;13.77;;
11510;SDS011;5812;48.864;9.190;2023-02-15T10:44:34;14.27;;;14.17;;
11510;SDS011;5812;48.864;9.190;2023-02-15T10:47:25;14.57;;;14.47;;
11510;SDS011;5812;48.864;9.190;2023-02-15T11:06:50;14.23;;;14.13;;
11510;SDS011;5812;48.864;9.190;2023-02-15T11:09:19;13.63;;;13.53;;
11510;SDS011;5812;48.864;9.190;2023-02-15T11:11:48;14.20;;;14.10;;
11510;SDS011;5812;48.864;9.190;2023-02-15T11:14:21;14.10;;;14.00;;
11510;SDS011;5812;48.864;9.190;2023-02-15T11:16:57;13.27;;;13.23;;
11510;SDS011;5812;48.864;9.190;2023-02-15T11:19:34;13.70;;;13.63;;
11510;SDS011;5812;48.864;9.190;2023-02-15T11:22:05;13.90;;;13.80;;
11510;SDS011;5812;48.864;9.190;2023-02-15T11:24:33;13.50;;;13.40;;
11510;SDS011;5812;48.864;9.190;2023-02-15T11:27:21;12.53;;;12.53;;
11510;SDS011;5812;48.864;9.190;2023-02-15T11:30:02;12.73;;;12.73;;
11510;SDS011;5812;48.864;9.190;2023-02-15T11:32:38;13.85;;;13.75;;
11510;SDS011;5812;48.864;9.190;2023-02-15T11:37:46;12.85;;;12.85;;
11510;SDS011;5812;48.864;9.190;2023-02-15T11:43:07;12.18;;;12.18;;
11510;SDS011;5812;48.864;9.190;2023-02-15T11:45:40;11.85;;;11.85;;
11510;SDS011;5812;48.864;9.190;2023-02-15T11:48:11;12.15;;;12.15;;
11510;SDS011;5812;48.864;9.190;2023-02-15T11:50:39;12.55;;;12.55;;
11510;SDS011;5812;48.864;9.190;2023-02-15T11:53:16;14.18;;;14.18;;
11510;SDS011;5812;48.864;9.190;2023-02-15T11:55:46;14.05;;;14.05;;
11510;SDS011;5812;48.864;9.190;2023-02-15T12:00:40;14.50;;;14.40;;
11510;SDS011;5812;48.864;9.190;2023-02-15T12:03:11;14.50;;;14.50;;
11510;SDS011;5812;48.864;9.190;2023-02-15T12:05:39;14.98;;;14.88;;
11510;SDS011;5812;48.864;9.190;2023-02-15T12:10:40;16.00;;;15.90;;
11510;SDS011;5812;48.864;9.190;2023-02-15T12:15:34;15.18;;;15.07;;
11510;SDS011;5812;48.864;9.190;2023-02-15T12:18:01;15.57;;;15.48;;
11510;SDS011;5812;48.864;9.190;2023-02-15T12:20:31;16.23;;;16.13;;
11510;SDS011;5812;48.864;9.190;2023-02-15T12:23:05;15.98;;;15.88;;
11510;SDS011;5812;48.864;9.190;2023-02-15T12:25:52;15.75;;;15.65;;
11510;SDS011;5812;48.864;9.190;2023-02-15T12:30:57;15.32;;;15.23;;
11510;SDS011;5812;48.864;9.190;2023-02-15T12:33:41;16.23;;;16.13;;
11510;SDS011;5812;48.864;9.190;2023-02-15T12:36:11;16.40;;;16.30;;
11510;SDS011;5812;48.864;9.190;2023-02-15T12:38:42;14.27;;;14.27;;
11510;SDS011;5812;48.864;9.190;2023-02-15T12:41:24;16.30;;;16.20;;
11510;SDS011;5812;48.864;9.190;2023-02-15T12:44:07;16.45;;;16.35;;
11510;SDS011;5812;48.864;9.190;2023-02-15T12:49:29;15.57;;;15.48;;
11510;SDS011;5812;48.864;9.190;2023-02-15T12:51:58;14.30;;;14.20;;
11510;SDS011;5812;48.864;9.190;2023-02-15T12:56:57;15.32;;;15.32;;
11510;SDS011;5812;48.864;9.190;2023-02-15T12:59:23;14.95;;;14.85;;
11510;SDS011;5812;48.864;9.190;2023-02-15T13:01:50;14.88;;;14.77;;
11510;SDS011;5812;48.864;9.190;2023-02-15T13:06:50;15.05;;;15.05;;
11510;SDS011;5812;48.864;9.190;2023-02-15T13:09:20;15.63;;;15.52;;
11510;SDS011;5812;48.864;9.190;2023-02-15T13:11:50;15.32;;;15.23;;
11510;SDS011;5812;48.864;9.190;2023-02-15T13:16:57;14.70;;;14.70;;
11510;SDS011;5812;48.864;9.190;2023-02-15T13:19:31;15.70;;;15.60;;
11510;SDS011;5812;48.864;9.190;2023-02-15T13:22:08;13.65;;;13.65;;
11510;SDS011;5812;48.864;9.190;2023-02-15T13:24:40;14.38;;;14.38;;
11510;SDS011;5812;48.864;9.190;2023-02-15T13:27:24;13.77;;;13.68;;
11510;SDS011;5812;48.864;9.190;2023-02-15T13:30:00;14.30;;;14.20;;
11510;SDS011;5812;48.864;9.190;2023-02-15T13:32:38;13.85;;;13.85;;
11510;SDS011;5812;48.864;9.190;2023-02-15T13:35:10;12.55;;;12.55;;
11510;SDS011;5812;48.864;9.190;2023-02-15T13:40:44;13.55;;;13.55;;
11510;SDS011;5812;48.864;9.190;2023-02-15T13:51:23;12.75;;;12.75;;
11510;SDS011;5812;48.864;9.190;2023-02-15T13:56:44;12.63;;;12.63;;
11510;SDS011;5812;48.864;9.190;2023-02-15T13:59:46;13.25;;;13.25;;
11510;SDS011;5812;48.864;9.190;2023-02-15T14:13:55;13.00;;;13.00;;
11510;SDS011;5812;48.864;9.190;2023-02-15T14:16:48;12.30;;;12.30;;
11510;SDS011;5812;48.864;9.190;2023-02-15T14:19:53;12.90;;;12.90;;
11510;SDS011;5812;48.864;9.190;2023-02-15T14:22:26;13.43;;;13.43;;
11510;SDS011;5812;48.864;9.190;2023-02-15T14:27:50;13.20;;;13.20;;
11510;SDS011;5812;48.864;9.190;2023-02-15T14:30:27;14.05;;;13.95;;
11510;SDS011;5812;48.864;9.190;2023-02-15T14:33:07;12.95;;;12.95;;
11510;SDS011;5812;48.864;9.190;2023-02-15T14:35:40;12.75;;;12.75;;
11510;SDS011;5812;48.864;9.190;2023-02-15T14:38:16;12.85;;;12.82;;
11510;SDS011;5812;48.864;9.190;2023-02-15T14:46:10;12.88;;;12.88;;
11510;SDS011;5812;48.864;9.190;2023-02-15T14:48:45;13.27;;;13.23;;
11510;SDS011;5812;48.864;9.190;2023-02-15T14:54:11;12.50;;;12.50;;
11510;SDS011;5812;48.864;9.190;2023-02-15T15:04:33;12.30;;;12.30;;
11510;SDS011;5812;48.864;9.190;2023-02-15T15:07:07;11.00;;;11.00;;
11510;SDS011;5812;48.864;9.190;2023-02-15T15:09:42;12.83;;;12.77;;
11510;SDS011;5812;48.864;9.190;2023-02-15T15:14:52;12.33;;;12.33;;
11510;SDS011;5812;48.864;9.190;2023-02-15T15:19:58;13.10;;;13.00;;
11510;SDS011;5812;48.864;9.190;2023-02-15T15:22:26;13.63;;;13.53;;
11510;SDS011;5812;48.864;9.190;2023-02-15T15:25:02;14.63;;;14.53;;
11510;SDS011;5812;48.864;9.190;2023-02-15T15:43:59;14.80;;;14.70;;
11510;SDS011;5812;48.864;9.190;2023-02-15T15:46:35;14.57;;;14.47;;
11510;SDS011;5812;48.864;9.190;2023-02-15T15:49:07;14.37;;;14.33;;
11510;SDS011;5812;48.864;9.190;2023-02-15T15:51:34;14.90;;;14.80;;
11510;SDS011;5812;48.864;9.190;2023-02-15T15:54:04;13.93;;;13.83;;
11510;SDS011;5812;48.864;9.190;2023-02-15T15:56:32;14.87;;;14.77;;
11510;SDS011;5812;48.864;9.190;2023-02-15T15:59:00;15.00;;;14.90;;
11510;SDS011;5812;48.864;9.190;2023-02-15T16:01:27;14.63;;;14.53;;
11510;SDS011;5812;48.864;9.190;2023-02-15T16:03:55;15.00;;;14.90;;
11510;SDS011;5812;48.864;9.190;2023-02-15T16:06:34;15.53;;;15.43;;
11510;SDS011;5812;48.864;9.190;2023-02-15T16:09:18;15.00;;;14.90;;
11510;SDS011;5812;48.864;9.190;2023-02-15T16:11:51;14.77;;;14.67;;
11510;SDS011;5812;48.864;9.190;2023-02-15T16:14:25;14.47;;;14.37;;
11510;SDS011;5812;48.864;9.190;2023-02-15T16:16:52;15.43;;;15.33;;
11510;SDS011;5812;48.864;9.190;2023-02-15T16:19:31;16.97;;;16.87;;
11510;SDS011;5812;48.864;9.190;2023-02-15T16:21:58;15.20;;;15.10;;
11510;SDS011;5812;48.864;9.190;2023-02-15T16:24:29;15.33;;;15.23;;
11510;SDS011;5812;48.864;9.190;2023-02-15T16:29:32;15.97;;;15.87;;
11510;SDS011;5812;48.864;9.190;2023-02-15T16:31:59;15.93;;;15.83;;
11510;SDS011;5812;48.864;9.190;2023-02-15T16:34:26;18.60;;;18.50;;
11510;SDS011;5812;48.864;9.190;2023-02-15T16:37:11;19.20;;;19.10;;
11510;SDS011;5812;48.864;9.190;2023-02-15T16:39:40;22.53;;;22.40;;
11510;SDS011;5812;48.864;9.190;2023-02-15T16:42:06;20.77;;;20.67;;
11510;SDS011;5812;48.864;9.190;2023-02-15T16:44:32;21.03;;;20.93;;
11510;SDS011;5812;48.864;9.190;2023-02-15T16:46:58;20.57;;;20.47;;
11510;SDS011;5812;48.864;9.190;2023-02-15T16:49:25;20.27;;;20.17;;
11510;SDS011;5812;48.864;9.190;2023-02-15T16:52:02;20.40;;;20.30;;
11510;SDS011;5812;48.864;9.190;2023-02-15T16:54:33;20.93;;;20.83;;
11510;SDS011;5812;48.864;9.190;2023-02-15T16:57:00;18.73;;;18.63;;
11510;SDS011;5812;48.864;9.190;2023-02-15T17:01:56;19.63;;;19.53;;
11510;SDS011;5812;48.864;9.190;2023-02-15T17:06:57;21.00;;;20.90;;
11510;SDS011;5812;48.864;9.190;2023-02-15T17:09:23;19.93;;;19.83;;
11510;SDS011;5812;48.864;9.190;2023-02-15T17:11:50;20.07;;;19.97;;
11510;SDS011;5812;48.864;9.190;2023-02-15T17:14:20;20.80;;;20.70;;
11510;SDS011;5812;48.864;9.190;2023-02-15T17:16:53;20.17;;;20.07;;
11510;SDS011;5812;48.864;9.190;2023-02-15T17:19:21;21.43;;;21.33;;
11510;SDS011;5812;48.864;9.190;2023-02-15T17:21:51;19.87;;;19.77;;
11510;SDS011;5812;48.864;9.190;2023-02-15T17:24:21;20.27;;;20.17;;
11510;SDS011;5812;48.864;9.190;2023-02-15T17:26:49;20.27;;;20.17;;
11510;SDS011;5812;48.864;9.190;2023-02-15T17:29:22;20.23;;;20.13;;
11510;SDS011;5812;48.864;9.190;2023-02-15T17:31:49;20.87;;;20.77;;
11510;SDS011;5812;48.864;9.190;2023-02-15T17:37:00;21.33;;;21.23;;
11510;SDS011;5812;48.864;9.190;2023-02-15T17:39:27;25.10;;;24.90;;
11510;SDS011;5812;48.864;9.190;2023-02-15T17:41:53;24.33;;;24.13;;
11510;SDS011;5812;48.864;9.190;2023-02-15T17:44:19;24.53;;;24.33;;
11510;SDS011;5812;48.864;9.190;2023-02-15T17:46:45;25.23;;;25.03;;
11510;SDS011;5812;48.864;9.190;2023-02-15T17:49:16;26.30;;;26.10;;
11510;SDS011;5812;48.864;9.190;2023-02-15T17:51:44;24.93;;;24.73;;
11510;SDS011;5812;48.864;9.190;2023-02-15T17:54:10;24.37;;;24.17;;
11510;SDS011;5812;48.864;9.190;2023-02-15T17:56:54;23.53;;;23.33;;
11510;SDS011;5812;48.864;9.190;2023-02-15T17:59:20;23.50;;;23.30;;